AAL3097 KPHL-KIND
Flight info
| Callsign | AAL3097 |
|---|---|
| Flight time | 1h 36m |
| Altitude | 38000 |
| Route | MXE PENSY J110 FLIRT BRNAN Q42 HIDON RINTE SNKPT2 |
| Aircraft | A319/M-SDE3FGHIRWY/LB1 |
Departure
| Time | 2026-05-07 20:48 |
|---|---|
| Airport | Philadelphia International Airport (KPHL) |
Arrival
| Time | 2026-05-07 22:25 |
|---|---|
| Airport | Indianapolis International Airport (KIND) |
| Time | Latitude | Longitude | Altitude | Speed | Heading |
|---|---|---|---|---|---|
| 2026-05-07 20:41 | 39.87536 | -75.24104 | 25 ft | 0 kts | 237° |
| 2026-05-07 20:43 | 39.87541 | -75.24094 | 31 ft | 3 kts | 235° |
| 2026-05-07 20:43 | 39.87550 | -75.24069 | 29 ft | 2 kts | 257° |
| 2026-05-07 20:43 | 39.87563 | -75.24051 | 31 ft | 4 kts | 179° |
| 2026-05-07 20:44 | 39.87584 | -75.24052 | 27 ft | 0 kts | 176° |
| 2026-05-07 20:46 | 39.87583 | -75.24051 | 27 ft | 1 kts | 173° |
| 2026-05-07 20:46 | 39.87522 | -75.23978 | 27 ft | 28 kts | 128° |
| 2026-05-07 20:46 | 39.87360 | -75.23875 | 25 ft | 22 kts | 159° |
| 2026-05-07 20:46 | 39.87221 | -75.23797 | 28 ft | 22 kts | 167° |
| 2026-05-07 20:47 | 39.87070 | -75.23743 | 27 ft | 23 kts | 166° |
| 2026-05-07 20:47 | 39.86974 | -75.23623 | 25 ft | 22 kts | 81° |
| 2026-05-07 20:47 | 39.86987 | -75.23436 | 25 ft | 18 kts | 132° |
| 2026-05-07 20:47 | 39.86891 | -75.23464 | 27 ft | 16 kts | 239° |
| 2026-05-07 20:48 | 39.86857 | -75.23632 | 26 ft | 35 kts | 256° |
| 2026-05-07 20:48 | 39.86726 | -75.24292 | 29 ft | 112 kts | 255° |
| 2026-05-07 20:48 | 39.86477 | -75.25521 | 83 ft | 162 kts | 256° |
| 2026-05-07 20:48 | 39.86185 | -75.26909 | 875 ft | 156 kts | 253° |
| 2026-05-07 20:49 | 39.85845 | -75.28271 | 1732 ft | 158 kts | 253° |
| 2026-05-07 20:49 | 39.85470 | -75.29725 | 2181 ft | 181 kts | 255° |
| 2026-05-07 20:49 | 39.85453 | -75.31441 | 2524 ft | 206 kts | 285° |
| 2026-05-07 20:49 | 39.85838 | -75.33354 | 3067 ft | 231 kts | 285° |
| 2026-05-07 20:50 | 39.86234 | -75.35482 | 3777 ft | 252 kts | 284° |
| 2026-05-07 20:50 | 39.86637 | -75.37733 | 4789 ft | 258 kts | 284° |
| 2026-05-07 20:50 | 39.87043 | -75.40026 | 5870 ft | 262 kts | 284° |
| 2026-05-07 20:50 | 39.87450 | -75.42349 | 6893 ft | 264 kts | 283° |
| 2026-05-07 20:51 | 39.87857 | -75.44664 | 8045 ft | 261 kts | 282° |
| 2026-05-07 20:51 | 39.88258 | -75.46945 | 9323 ft | 255 kts | 282° |
| 2026-05-07 20:51 | 39.88653 | -75.49186 | 10407 ft | 256 kts | 280° |
| 2026-05-07 20:51 | 39.89066 | -75.51539 | 10863 ft | 276 kts | 280° |
| 2026-05-07 20:52 | 39.89502 | -75.54019 | 11620 ft | 284 kts | 279° |
| 2026-05-07 20:52 | 39.89946 | -75.56547 | 12488 ft | 288 kts | 278° |
| 2026-05-07 20:52 | 39.90389 | -75.59064 | 13389 ft | 291 kts | 277° |
| 2026-05-07 20:52 | 39.90845 | -75.61647 | 14219 ft | 294 kts | 277° |
| 2026-05-07 20:53 | 39.91303 | -75.64249 | 15009 ft | 296 kts | 277° |
| 2026-05-07 20:53 | 39.91718 | -75.66880 | 15767 ft | 297 kts | 272° |
| 2026-05-07 20:53 | 39.91759 | -75.69555 | 16539 ft | 296 kts | 265° |
| 2026-05-07 20:53 | 39.91703 | -75.72247 | 17320 ft | 299 kts | 265° |
| 2026-05-07 20:54 | 39.91649 | -75.74961 | 18094 ft | 301 kts | 265° |
| 2026-05-07 20:54 | 39.91595 | -75.77701 | 18774 ft | 303 kts | 265° |
| 2026-05-07 20:54 | 39.91541 | -75.80457 | 19473 ft | 305 kts | 265° |
| 2026-05-07 20:54 | 39.91486 | -75.83223 | 20178 ft | 307 kts | 265° |
| 2026-05-07 20:55 | 39.91429 | -75.86003 | 20871 ft | 308 kts | 265° |
| 2026-05-07 20:55 | 39.91372 | -75.88796 | 21571 ft | 310 kts | 265° |
| 2026-05-07 20:55 | 39.91315 | -75.91605 | 22264 ft | 312 kts | 265° |
| 2026-05-07 20:55 | 39.91257 | -75.94450 | 22944 ft | 314 kts | 265° |
| 2026-05-07 20:56 | 39.91198 | -75.97307 | 23586 ft | 316 kts | 265° |
| 2026-05-07 20:56 | 39.91138 | -76.00180 | 24144 ft | 318 kts | 265° |
| 2026-05-07 20:56 | 39.91075 | -76.03065 | 24689 ft | 319 kts | 265° |
| 2026-05-07 20:56 | 39.91009 | -76.05949 | 25224 ft | 321 kts | 265° |
| 2026-05-07 20:57 | 39.90944 | -76.08865 | 25759 ft | 322 kts | 265° |
| 2026-05-07 20:57 | 39.90878 | -76.11782 | 26287 ft | 324 kts | 265° |
| 2026-05-07 20:57 | 39.90809 | -76.14740 | 26803 ft | 326 kts | 265° |
| 2026-05-07 20:57 | 39.90737 | -76.17700 | 27315 ft | 328 kts | 265° |
| 2026-05-07 20:58 | 39.90724 | -76.19675 | 27653 ft | 330 kts | 267° |
| 2026-05-07 20:58 | 39.90798 | -76.22670 | 28131 ft | 333 kts | 269° |
| 2026-05-07 20:58 | 39.90937 | -76.25695 | 28630 ft | 335 kts | 270° |
| 2026-05-07 20:58 | 39.91102 | -76.28738 | 29113 ft | 338 kts | 270° |
| 2026-05-07 20:59 | 39.91266 | -76.31797 | 29596 ft | 340 kts | 270° |
| 2026-05-07 20:59 | 39.91419 | -76.34877 | 30046 ft | 342 kts | 269° |
| 2026-05-07 20:59 | 39.91562 | -76.37972 | 30418 ft | 344 kts | 269° |
| 2026-05-07 20:59 | 39.91696 | -76.41096 | 30795 ft | 346 kts | 269° |
| 2026-05-07 21:00 | 39.91829 | -76.44231 | 31156 ft | 348 kts | 269° |
| 2026-05-07 21:00 | 39.91961 | -76.47385 | 31515 ft | 350 kts | 269° |
| 2026-05-07 21:00 | 39.92091 | -76.50563 | 31875 ft | 352 kts | 269° |
| 2026-05-07 21:00 | 39.92218 | -76.53750 | 32231 ft | 354 kts | 269° |
| 2026-05-07 21:01 | 39.92346 | -76.56955 | 32658 ft | 353 kts | 269° |
| 2026-05-07 21:01 | 39.92473 | -76.60141 | 33180 ft | 351 kts | 269° |
| 2026-05-07 21:01 | 39.92596 | -76.63308 | 33713 ft | 349 kts | 269° |
| 2026-05-07 21:01 | 39.92718 | -76.66460 | 34179 ft | 348 kts | 269° |
| 2026-05-07 21:02 | 39.92851 | -76.69598 | 34607 ft | 347 kts | 271° |
| 2026-05-07 21:02 | 39.93300 | -76.72713 | 34988 ft | 352 kts | 277° |
| 2026-05-07 21:02 | 39.93889 | -76.75807 | 35371 ft | 352 kts | 277° |
| 2026-05-07 21:02 | 39.94474 | -76.78904 | 35746 ft | 351 kts | 277° |
| 2026-05-07 21:03 | 39.95052 | -76.81995 | 36101 ft | 351 kts | 277° |
| 2026-05-07 21:03 | 39.95627 | -76.85089 | 36463 ft | 351 kts | 277° |
| 2026-05-07 21:03 | 39.96199 | -76.88173 | 36815 ft | 351 kts | 277° |
| 2026-05-07 21:03 | 39.96773 | -76.91265 | 37165 ft | 350 kts | 277° |
| 2026-05-07 21:04 | 39.97346 | -76.94354 | 37512 ft | 350 kts | 277° |
| 2026-05-07 21:04 | 39.97918 | -76.97438 | 37807 ft | 351 kts | 277° |
| 2026-05-07 21:04 | 39.98491 | -77.00523 | 37866 ft | 350 kts | 277° |
| 2026-05-07 21:05 | 39.99638 | -77.06731 | 37876 ft | 349 kts | 277° |
| 2026-05-07 21:05 | 40.00787 | -77.12991 | 37880 ft | 359 kts | 277° |
| 2026-05-07 21:06 | 40.01957 | -77.19346 | 37885 ft | 361 kts | 277° |
| 2026-05-07 21:06 | 40.03126 | -77.25724 | 37885 ft | 362 kts | 277° |
| 2026-05-07 21:07 | 40.04286 | -77.32084 | 37890 ft | 363 kts | 277° |
| 2026-05-07 21:07 | 40.05454 | -77.38503 | 37893 ft | 364 kts | 277° |
| 2026-05-07 21:08 | 40.06622 | -77.44935 | 37892 ft | 365 kts | 277° |
| 2026-05-07 21:08 | 40.07784 | -77.51386 | 37892 ft | 365 kts | 277° |
| 2026-05-07 21:09 | 40.08947 | -77.57844 | 37898 ft | 366 kts | 278° |
| 2026-05-07 21:09 | 40.10110 | -77.64311 | 37898 ft | 366 kts | 278° |
| 2026-05-07 21:10 | 40.11268 | -77.70781 | 37902 ft | 366 kts | 278° |
| 2026-05-07 21:10 | 40.12415 | -77.77270 | 37903 ft | 367 kts | 278° |
| 2026-05-07 21:11 | 40.13480 | -77.83772 | 37903 ft | 364 kts | 272° |
| 2026-05-07 21:11 | 40.13650 | -77.93635 | 37911 ft | 362 kts | 268° |
| 2026-05-07 21:12 | 40.13716 | -78.00212 | 37914 ft | 362 kts | 268° |
| 2026-05-07 21:12 | 40.13780 | -78.06789 | 37911 ft | 362 kts | 269° |
| 2026-05-07 21:13 | 40.13842 | -78.13365 | 37915 ft | 362 kts | 269° |
| 2026-05-07 21:13 | 40.13904 | -78.19929 | 37914 ft | 361 kts | 269° |
| 2026-05-07 21:14 | 40.13965 | -78.26478 | 37920 ft | 360 kts | 269° |
| 2026-05-07 21:14 | 40.14017 | -78.33011 | 37918 ft | 359 kts | 269° |
| 2026-05-07 21:15 | 40.14067 | -78.39525 | 37922 ft | 358 kts | 269° |
| 2026-05-07 21:15 | 40.14113 | -78.46028 | 37922 ft | 357 kts | 269° |
| 2026-05-07 21:16 | 40.14155 | -78.52515 | 37915 ft | 357 kts | 269° |
| 2026-05-07 21:16 | 40.14190 | -78.58944 | 37915 ft | 355 kts | 269° |
| 2026-05-07 21:17 | 40.14222 | -78.65397 | 37919 ft | 354 kts | 269° |
| 2026-05-07 21:17 | 40.14247 | -78.71823 | 37920 ft | 353 kts | 269° |
| 2026-05-07 21:18 | 40.14277 | -78.78240 | 37920 ft | 353 kts | 269° |
| 2026-05-07 21:18 | 40.14304 | -78.84642 | 37916 ft | 352 kts | 269° |
| 2026-05-07 21:19 | 40.14321 | -78.91037 | 37918 ft | 352 kts | 269° |
| 2026-05-07 21:19 | 40.14337 | -78.97432 | 37919 ft | 351 kts | 269° |
| 2026-05-07 21:20 | 40.14353 | -79.03816 | 37922 ft | 351 kts | 269° |
| 2026-05-07 21:20 | 40.14359 | -79.10199 | 37924 ft | 351 kts | 269° |
| 2026-05-07 21:21 | 40.14367 | -79.16570 | 37935 ft | 351 kts | 269° |
| 2026-05-07 21:21 | 40.14495 | -79.22916 | 37932 ft | 351 kts | 270° |
| 2026-05-07 21:22 | 40.14685 | -79.29295 | 37930 ft | 351 kts | 270° |
| 2026-05-07 21:22 | 40.14851 | -79.35684 | 37934 ft | 351 kts | 270° |
| 2026-05-07 21:23 | 40.14997 | -79.42062 | 37931 ft | 351 kts | 270° |
| 2026-05-07 21:23 | 40.15133 | -79.48455 | 37934 ft | 352 kts | 270° |
| 2026-05-07 21:24 | 40.15267 | -79.54846 | 37935 ft | 351 kts | 270° |
| 2026-05-07 21:24 | 40.15400 | -79.61228 | 37936 ft | 351 kts | 270° |
| 2026-05-07 21:25 | 40.15531 | -79.67612 | 37948 ft | 351 kts | 270° |
| 2026-05-07 21:25 | 40.15662 | -79.73999 | 37948 ft | 351 kts | 270° |
| 2026-05-07 21:26 | 40.15780 | -79.80383 | 37936 ft | 351 kts | 270° |
| 2026-05-07 21:26 | 40.15901 | -79.86769 | 37929 ft | 351 kts | 270° |
| 2026-05-07 21:27 | 40.16020 | -79.93156 | 37931 ft | 351 kts | 270° |
| 2026-05-07 21:27 | 40.16133 | -79.99536 | 37932 ft | 351 kts | 270° |
| 2026-05-07 21:28 | 40.16240 | -80.05923 | 37965 ft | 351 kts | 270° |
| 2026-05-07 21:28 | 40.16346 | -80.12264 | 37967 ft | 351 kts | 270° |
| 2026-05-07 21:29 | 40.16450 | -80.18653 | 37966 ft | 351 kts | 269° |
| 2026-05-07 21:29 | 40.16544 | -80.25039 | 37968 ft | 352 kts | 269° |
| 2026-05-07 21:30 | 40.16639 | -80.31429 | 37965 ft | 352 kts | 269° |
| 2026-05-07 21:30 | 40.16734 | -80.37822 | 37963 ft | 352 kts | 270° |
| 2026-05-07 21:31 | 40.16826 | -80.44217 | 37958 ft | 352 kts | 269° |
| 2026-05-07 21:31 | 40.16908 | -80.50611 | 37930 ft | 352 kts | 269° |
| 2026-05-07 21:32 | 40.16990 | -80.57015 | 37927 ft | 352 kts | 269° |
| 2026-05-07 21:32 | 40.17066 | -80.63415 | 37929 ft | 352 kts | 269° |
| 2026-05-07 21:33 | 40.17140 | -80.69814 | 37925 ft | 352 kts | 269° |
| 2026-05-07 21:33 | 40.17211 | -80.76218 | 37927 ft | 352 kts | 269° |
| 2026-05-07 21:34 | 40.17278 | -80.82616 | 37932 ft | 352 kts | 269° |
| 2026-05-07 21:34 | 40.17340 | -80.88980 | 37940 ft | 352 kts | 269° |
| 2026-05-07 21:35 | 40.17402 | -80.95425 | 37949 ft | 352 kts | 269° |
| 2026-05-07 21:35 | 40.17414 | -81.01784 | 37958 ft | 352 kts | 268° |
| 2026-05-07 21:36 | 40.17337 | -81.08225 | 37965 ft | 352 kts | 268° |
| 2026-05-07 21:36 | 40.17252 | -81.14623 | 37970 ft | 352 kts | 268° |
| 2026-05-07 21:37 | 40.17186 | -81.21015 | 37970 ft | 352 kts | 268° |
| 2026-05-07 21:37 | 40.17116 | -81.27370 | 37976 ft | 352 kts | 268° |
| 2026-05-07 21:38 | 40.17044 | -81.33769 | 37975 ft | 352 kts | 268° |
| 2026-05-07 21:38 | 40.16973 | -81.40163 | 37975 ft | 352 kts | 268° |
| 2026-05-07 21:39 | 40.16888 | -81.46554 | 37976 ft | 351 kts | 268° |
| 2026-05-07 21:39 | 40.16800 | -81.52945 | 37979 ft | 351 kts | 268° |
| 2026-05-07 21:40 | 40.16708 | -81.59333 | 37979 ft | 351 kts | 268° |
| 2026-05-07 21:40 | 40.16865 | -81.65719 | 37982 ft | 352 kts | 272° |
| 2026-05-07 21:41 | 40.17254 | -81.72100 | 37983 ft | 352 kts | 272° |
| 2026-05-07 21:41 | 40.17633 | -81.78479 | 37989 ft | 352 kts | 272° |
| 2026-05-07 21:42 | 40.18004 | -81.84859 | 37991 ft | 352 kts | 272° |
| 2026-05-07 21:42 | 40.18375 | -81.91235 | 37992 ft | 352 kts | 272° |
| 2026-05-07 21:43 | 40.18744 | -81.97580 | 37994 ft | 352 kts | 272° |
| 2026-05-07 21:43 | 40.19049 | -82.02917 | 37997 ft | 351 kts | 272° |
| 2026-05-07 21:44 | 40.19408 | -82.09287 | 37997 ft | 351 kts | 272° |
| 2026-05-07 21:44 | 40.19825 | -82.16693 | 38009 ft | 351 kts | 272° |
| 2026-05-07 21:45 | 40.20128 | -82.22069 | 38008 ft | 351 kts | 272° |
| 2026-05-07 21:45 | 40.20481 | -82.28433 | 38010 ft | 351 kts | 272° |
| 2026-05-07 21:46 | 40.20824 | -82.34752 | 38010 ft | 350 kts | 272° |
| 2026-05-07 21:46 | 40.21168 | -82.41107 | 38006 ft | 350 kts | 272° |
| 2026-05-07 21:47 | 40.21506 | -82.47461 | 38008 ft | 350 kts | 272° |
| 2026-05-07 21:47 | 40.21844 | -82.53811 | 38006 ft | 350 kts | 272° |
| 2026-05-07 21:48 | 40.22177 | -82.60160 | 38010 ft | 350 kts | 272° |
| 2026-05-07 21:48 | 40.22507 | -82.66516 | 38009 ft | 350 kts | 272° |
| 2026-05-07 21:49 | 40.22833 | -82.72872 | 38016 ft | 350 kts | 272° |
| 2026-05-07 21:49 | 40.23150 | -82.79233 | 38017 ft | 350 kts | 272° |
| 2026-05-07 21:50 | 40.23472 | -82.85590 | 38024 ft | 350 kts | 272° |
| 2026-05-07 21:50 | 40.23785 | -82.91904 | 38021 ft | 350 kts | 272° |
| 2026-05-07 21:51 | 40.24097 | -82.98251 | 38020 ft | 349 kts | 272° |
| 2026-05-07 21:51 | 40.24406 | -83.04599 | 38010 ft | 350 kts | 272° |
| 2026-05-07 21:52 | 40.24710 | -83.10944 | 38016 ft | 350 kts | 272° |
| 2026-05-07 21:52 | 40.25009 | -83.17302 | 38017 ft | 350 kts | 272° |
| 2026-05-07 21:53 | 40.25308 | -83.23657 | 38015 ft | 350 kts | 272° |
| 2026-05-07 21:53 | 40.25603 | -83.30021 | 38013 ft | 350 kts | 272° |
| 2026-05-07 21:54 | 40.25893 | -83.36376 | 38012 ft | 350 kts | 272° |
| 2026-05-07 21:54 | 40.26181 | -83.42742 | 38013 ft | 350 kts | 272° |
| 2026-05-07 21:55 | 40.26464 | -83.49103 | 38012 ft | 350 kts | 272° |
| 2026-05-07 21:55 | 40.26744 | -83.55461 | 38014 ft | 350 kts | 272° |
| 2026-05-07 21:56 | 40.27021 | -83.61779 | 38022 ft | 350 kts | 272° |
| 2026-05-07 21:56 | 40.27292 | -83.68133 | 38020 ft | 350 kts | 272° |
| 2026-05-07 21:57 | 40.27562 | -83.74501 | 38015 ft | 350 kts | 272° |
| 2026-05-07 21:57 | 40.27832 | -83.80858 | 38013 ft | 350 kts | 272° |
| 2026-05-07 21:58 | 40.28095 | -83.87218 | 38014 ft | 350 kts | 272° |
| 2026-05-07 21:58 | 40.28355 | -83.93582 | 38017 ft | 350 kts | 272° |
| 2026-05-07 21:59 | 40.28609 | -83.99950 | 38011 ft | 350 kts | 272° |
| 2026-05-07 21:59 | 40.28713 | -84.06321 | 38017 ft | 350 kts | 268° |
| 2026-05-07 22:00 | 40.28500 | -84.12682 | 38017 ft | 350 kts | 268° |
| 2026-05-07 22:00 | 40.28397 | -84.15858 | 38192 ft | 343 kts | 268° |
| 2026-05-07 22:00 | 40.28304 | -84.18919 | 38898 ft | 331 kts | 268° |
| 2026-05-07 22:01 | 40.28219 | -84.21890 | 39514 ft | 321 kts | 268° |
| 2026-05-07 22:01 | 40.28143 | -84.24732 | 40118 ft | 311 kts | 268° |
| 2026-05-07 22:01 | 40.28073 | -84.27512 | 40625 ft | 304 kts | 268° |
| 2026-05-07 22:01 | 40.27976 | -84.30326 | 39928 ft | 317 kts | 267° |
| 2026-05-07 22:02 | 40.27854 | -84.33301 | 38720 ft | 338 kts | 267° |
| 2026-05-07 22:02 | 40.27721 | -84.36462 | 37445 ft | 354 kts | 267° |
| 2026-05-07 22:02 | 40.27593 | -84.39662 | 37151 ft | 346 kts | 267° |
| 2026-05-07 22:02 | 40.27475 | -84.42762 | 36881 ft | 338 kts | 267° |
| 2026-05-07 22:03 | 40.27360 | -84.45827 | 36311 ft | 338 kts | 267° |
| 2026-05-07 22:03 | 40.27247 | -84.48904 | 35699 ft | 338 kts | 267° |
| 2026-05-07 22:03 | 40.27134 | -84.51992 | 35010 ft | 340 kts | 267° |
| 2026-05-07 22:03 | 40.27021 | -84.55085 | 34353 ft | 341 kts | 267° |
| 2026-05-07 22:04 | 40.26909 | -84.58181 | 33650 ft | 341 kts | 267° |
| 2026-05-07 22:04 | 40.26794 | -84.61293 | 32812 ft | 343 kts | 267° |
| 2026-05-07 22:04 | 40.26674 | -84.64409 | 31970 ft | 344 kts | 266° |
| 2026-05-07 22:04 | 40.26552 | -84.67545 | 31160 ft | 345 kts | 266° |
| 2026-05-07 22:05 | 40.26434 | -84.70689 | 30337 ft | 347 kts | 266° |
| 2026-05-07 22:05 | 40.26322 | -84.73815 | 29374 ft | 349 kts | 267° |
| 2026-05-07 22:05 | 40.26211 | -84.76975 | 28647 ft | 345 kts | 267° |
| 2026-05-07 22:05 | 40.26099 | -84.80088 | 27979 ft | 341 kts | 267° |
| 2026-05-07 22:06 | 40.25986 | -84.83171 | 27323 ft | 337 kts | 267° |
| 2026-05-07 22:06 | 40.25874 | -84.86155 | 26690 ft | 333 kts | 267° |
| 2026-05-07 22:06 | 40.25761 | -84.89140 | 26066 ft | 329 kts | 267° |
| 2026-05-07 22:06 | 40.25648 | -84.92118 | 25452 ft | 325 kts | 267° |
| 2026-05-07 22:07 | 40.25534 | -84.95065 | 24846 ft | 322 kts | 267° |
| 2026-05-07 22:07 | 40.25421 | -84.97978 | 24249 ft | 320 kts | 267° |
| 2026-05-07 22:07 | 40.25307 | -85.00875 | 23656 ft | 317 kts | 267° |
| 2026-05-07 22:07 | 40.25194 | -85.03754 | 23015 ft | 315 kts | 268° |
| 2026-05-07 22:08 | 40.25079 | -85.06604 | 22464 ft | 312 kts | 268° |
| 2026-05-07 22:08 | 40.24964 | -85.09426 | 21949 ft | 309 kts | 268° |
| 2026-05-07 22:08 | 40.24851 | -85.12221 | 21455 ft | 306 kts | 268° |
| 2026-05-07 22:08 | 40.24740 | -85.14989 | 20973 ft | 303 kts | 268° |
| 2026-05-07 22:09 | 40.24630 | -85.17728 | 20510 ft | 300 kts | 269° |
| 2026-05-07 22:09 | 40.24521 | -85.20435 | 20062 ft | 296 kts | 269° |
| 2026-05-07 22:09 | 40.24410 | -85.23113 | 19619 ft | 294 kts | 269° |
| 2026-05-07 22:09 | 40.24298 | -85.25775 | 19183 ft | 292 kts | 269° |
| 2026-05-07 22:10 | 40.24184 | -85.28432 | 18745 ft | 292 kts | 269° |
| 2026-05-07 22:10 | 40.24069 | -85.31081 | 18287 ft | 292 kts | 270° |
| 2026-05-07 22:10 | 40.23956 | -85.33694 | 17779 ft | 291 kts | 269° |
| 2026-05-07 22:10 | 40.23845 | -85.36340 | 17300 ft | 291 kts | 269° |
| 2026-05-07 22:11 | 40.23534 | -85.38959 | 16835 ft | 294 kts | 259° |
| 2026-05-07 22:11 | 40.22821 | -85.41486 | 16343 ft | 299 kts | 250° |
| 2026-05-07 22:11 | 40.21807 | -85.43873 | 15854 ft | 300 kts | 246° |
| 2026-05-07 22:11 | 40.20778 | -85.46247 | 15358 ft | 299 kts | 246° |
| 2026-05-07 22:12 | 40.19753 | -85.48618 | 14856 ft | 299 kts | 246° |
| 2026-05-07 22:12 | 40.18729 | -85.50989 | 14353 ft | 300 kts | 246° |
| 2026-05-07 22:12 | 40.17703 | -85.53365 | 13852 ft | 300 kts | 246° |
| 2026-05-07 22:12 | 40.16677 | -85.55740 | 13298 ft | 300 kts | 246° |
| 2026-05-07 22:13 | 40.15653 | -85.58111 | 12782 ft | 299 kts | 246° |
| 2026-05-07 22:13 | 40.14634 | -85.60465 | 12273 ft | 297 kts | 245° |
| 2026-05-07 22:13 | 40.13620 | -85.62810 | 11763 ft | 296 kts | 245° |
| 2026-05-07 22:13 | 40.12617 | -85.65150 | 11256 ft | 295 kts | 245° |
| 2026-05-07 22:14 | 40.11620 | -85.67493 | 10749 ft | 294 kts | 245° |
| 2026-05-07 22:14 | 40.10638 | -85.69797 | 10555 ft | 285 kts | 245° |
| 2026-05-07 22:14 | 40.09688 | -85.72011 | 10422 ft | 274 kts | 245° |
| 2026-05-07 22:14 | 40.08774 | -85.74139 | 10222 ft | 266 kts | 245° |
| 2026-05-07 22:15 | 40.07879 | -85.76231 | 9971 ft | 262 kts | 245° |
| 2026-05-07 22:15 | 40.06993 | -85.78301 | 9830 ft | 261 kts | 245° |
| 2026-05-07 22:15 | 40.06105 | -85.80372 | 9689 ft | 261 kts | 245° |
| 2026-05-07 22:15 | 40.05190 | -85.82426 | 9553 ft | 262 kts | 243° |
| 2026-05-07 22:16 | 40.04228 | -85.84446 | 9413 ft | 262 kts | 242° |
| 2026-05-07 22:16 | 40.03248 | -85.86452 | 9073 ft | 262 kts | 241° |
| 2026-05-07 22:16 | 40.02115 | -85.88326 | 8665 ft | 264 kts | 233° |
| 2026-05-07 22:16 | 40.00920 | -85.90134 | 8231 ft | 263 kts | 233° |
| 2026-05-07 22:17 | 39.99733 | -85.91948 | 7802 ft | 263 kts | 233° |
| 2026-05-07 22:17 | 39.98552 | -85.93765 | 7370 ft | 262 kts | 233° |
| 2026-05-07 22:17 | 39.97377 | -85.95576 | 6935 ft | 262 kts | 232° |
| 2026-05-07 22:17 | 39.96201 | -85.97386 | 6507 ft | 262 kts | 232° |
| 2026-05-07 22:18 | 39.95027 | -85.99191 | 6060 ft | 261 kts | 232° |
| 2026-05-07 22:18 | 39.92692 | -86.02771 | 5344 ft | 253 kts | 231° |
| 2026-05-07 22:19 | 39.91958 | -86.03889 | 5346 ft | 240 kts | 231° |
| 2026-05-07 22:19 | 39.90915 | -86.05511 | 5244 ft | 227 kts | 236° |
| 2026-05-07 22:19 | 39.90006 | -86.07126 | 5148 ft | 216 kts | 232° |
| 2026-05-07 22:19 | 39.89018 | -86.08534 | 5052 ft | 205 kts | 228° |
| 2026-05-07 22:20 | 39.88022 | -86.09834 | 4963 ft | 201 kts | 227° |
| 2026-05-07 22:20 | 39.87034 | -86.11104 | 4739 ft | 198 kts | 227° |
| 2026-05-07 22:20 | 39.86052 | -86.12365 | 4488 ft | 199 kts | 227° |
| 2026-05-07 22:20 | 39.85066 | -86.13631 | 4229 ft | 199 kts | 227° |
| 2026-05-07 22:21 | 39.84076 | -86.14900 | 3944 ft | 201 kts | 227° |
| 2026-05-07 22:21 | 39.83076 | -86.16182 | 3659 ft | 201 kts | 227° |
| 2026-05-07 22:21 | 39.82078 | -86.17461 | 3392 ft | 203 kts | 227° |
| 2026-05-07 22:21 | 39.81070 | -86.18752 | 3118 ft | 204 kts | 227° |
| 2026-05-07 22:22 | 39.80060 | -86.20045 | 2837 ft | 202 kts | 227° |
| 2026-05-07 22:22 | 39.79077 | -86.21302 | 2560 ft | 192 kts | 227° |
| 2026-05-07 22:22 | 39.78157 | -86.22478 | 2311 ft | 180 kts | 227° |
| 2026-05-07 22:22 | 39.77300 | -86.23572 | 2090 ft | 162 kts | 227° |
| 2026-05-07 22:23 | 39.76553 | -86.24524 | 1880 ft | 140 kts | 227° |
| 2026-05-07 22:23 | 39.75888 | -86.25376 | 1659 ft | 130 kts | 228° |
| 2026-05-07 22:23 | 39.75263 | -86.26180 | 1501 ft | 124 kts | 229° |
| 2026-05-07 22:23 | 39.74657 | -86.26954 | 1422 ft | 124 kts | 228° |
| 2026-05-07 22:24 | 39.74033 | -86.27743 | 1205 ft | 123 kts | 226° |
| 2026-05-07 22:24 | 39.73434 | -86.28506 | 1024 ft | 123 kts | 229° |
| 2026-05-07 22:24 | 39.72834 | -86.29280 | 829 ft | 122 kts | 227° |
| 2026-05-07 22:24 | 39.72350 | -86.29898 | 780 ft | 58 kts | 224° |
| 2026-05-07 22:25 | 39.72115 | -86.30202 | 781 ft | 36 kts | 225° |
| 2026-05-07 22:25 | 39.71977 | -86.30173 | 781 ft | 18 kts | 95° |
| 2026-05-07 22:25 | 39.71919 | -86.30030 | 781 ft | 19 kts | 132° |
| 2026-05-07 22:25 | 39.71880 | -86.29891 | 781 ft | 17 kts | 58° |
| 2026-05-07 22:26 | 39.71972 | -86.29782 | 781 ft | 19 kts | 39° |
| 2026-05-07 22:26 | 39.71999 | -86.29640 | 781 ft | 19 kts | 122° |
| 2026-05-07 22:26 | 39.71913 | -86.29507 | 781 ft | 20 kts | 127° |
| 2026-05-07 22:26 | 39.71802 | -86.29475 | 781 ft | 19 kts | 219° |
| 2026-05-07 22:27 | 39.71701 | -86.29583 | 781 ft | 13 kts | 223° |
| 2026-05-07 22:27 | 39.71643 | -86.29662 | 781 ft | 7 kts | 236° |
| 2026-05-07 22:27 | 39.71652 | -86.29725 | 781 ft | 4 kts | 311° |
| 2026-05-07 22:27 | 39.71664 | -86.29741 | 781 ft | 0 kts | 312° |